sensor_id;sensor_type;location;lat;lon;timestamp;P1;durP1;ratioP1;P2;durP2;ratioP2
7485;SDS011;3784;54.098;9.998;2022-07-23T00:00:13;5.30;;;1.83;;
7485;SDS011;3784;54.098;9.998;2022-07-23T00:02:39;3.13;;;1.77;;
7485;SDS011;3784;54.098;9.998;2022-07-23T00:05:06;2.73;;;1.60;;
7485;SDS011;3784;54.098;9.998;2022-07-23T00:07:33;3.53;;;1.70;;
7485;SDS011;3784;54.098;9.998;2022-07-23T00:10:00;3.77;;;1.93;;
7485;SDS011;3784;54.098;9.998;2022-07-23T00:12:26;3.33;;;1.70;;
7485;SDS011;3784;54.098;9.998;2022-07-23T00:14:53;3.67;;;1.67;;
7485;SDS011;3784;54.098;9.998;2022-07-23T00:17:19;3.83;;;1.83;;
7485;SDS011;3784;54.098;9.998;2022-07-23T00:19:46;4.60;;;1.63;;
7485;SDS011;3784;54.098;9.998;2022-07-23T00:22:13;4.10;;;1.70;;
7485;SDS011;3784;54.098;9.998;2022-07-23T00:24:39;5.03;;;2.10;;
7485;SDS011;3784;54.098;9.998;2022-07-23T00:27:07;5.80;;;2.20;;
7485;SDS011;3784;54.098;9.998;2022-07-23T00:29:33;4.17;;;1.70;;
7485;SDS011;3784;54.098;9.998;2022-07-23T00:32:00;4.30;;;1.77;;
7485;SDS011;3784;54.098;9.998;2022-07-23T00:34:27;6.23;;;2.20;;
7485;SDS011;3784;54.098;9.998;2022-07-23T00:36:53;6.13;;;2.33;;
7485;SDS011;3784;54.098;9.998;2022-07-23T00:39:20;7.57;;;2.23;;
7485;SDS011;3784;54.098;9.998;2022-07-23T00:41:50;3.73;;;2.30;;
7485;SDS011;3784;54.098;9.998;2022-07-23T00:44:21;3.93;;;2.13;;
7485;SDS011;3784;54.098;9.998;2022-07-23T00:46:53;3.77;;;2.17;;
7485;SDS011;3784;54.098;9.998;2022-07-23T00:49:21;5.57;;;2.50;;
7485;SDS011;3784;54.098;9.998;2022-07-23T00:51:57;3.73;;;2.37;;
7485;SDS011;3784;54.098;9.998;2022-07-23T00:54:26;6.20;;;2.17;;
7485;SDS011;3784;54.098;9.998;2022-07-23T00:56:53;8.03;;;2.30;;
7485;SDS011;3784;54.098;9.998;2022-07-23T00:59:19;5.03;;;2.47;;
7485;SDS011;3784;54.098;9.998;2022-07-23T01:01:46;3.87;;;2.17;;
7485;SDS011;3784;54.098;9.998;2022-07-23T01:04:15;5.27;;;2.23;;
7485;SDS011;3784;54.098;9.998;2022-07-23T01:06:42;5.43;;;2.50;;
7485;SDS011;3784;54.098;9.998;2022-07-23T01:09:10;6.23;;;2.67;;
7485;SDS011;3784;54.098;9.998;2022-07-23T01:11:36;5.87;;;2.30;;
7485;SDS011;3784;54.098;9.998;2022-07-23T01:14:16;5.87;;;2.33;;
7485;SDS011;3784;54.098;9.998;2022-07-23T01:16:44;6.10;;;2.60;;
7485;SDS011;3784;54.098;9.998;2022-07-23T01:19:12;5.27;;;2.53;;
7485;SDS011;3784;54.098;9.998;2022-07-23T01:21:40;4.57;;;2.63;;
7485;SDS011;3784;54.098;9.998;2022-07-23T01:24:08;4.93;;;2.57;;
7485;SDS011;3784;54.098;9.998;2022-07-23T01:26:36;4.13;;;2.83;;
7485;SDS011;3784;54.098;9.998;2022-07-23T01:29:04;4.80;;;2.83;;
7485;SDS011;3784;54.098;9.998;2022-07-23T01:31:31;4.57;;;2.57;;
7485;SDS011;3784;54.098;9.998;2022-07-23T01:33:57;4.00;;;2.37;;
7485;SDS011;3784;54.098;9.998;2022-07-23T01:36:25;5.53;;;2.10;;
7485;SDS011;3784;54.098;9.998;2022-07-23T01:38:52;5.33;;;1.90;;
7485;SDS011;3784;54.098;9.998;2022-07-23T01:41:18;3.87;;;2.00;;
7485;SDS011;3784;54.098;9.998;2022-07-23T01:43:45;3.93;;;2.00;;
7485;SDS011;3784;54.098;9.998;2022-07-23T01:46:11;5.30;;;1.73;;
7485;SDS011;3784;54.098;9.998;2022-07-23T01:48:38;5.80;;;1.83;;
7485;SDS011;3784;54.098;9.998;2022-07-23T01:51:05;4.33;;;1.83;;
7485;SDS011;3784;54.098;9.998;2022-07-23T01:53:31;3.03;;;1.60;;
7485;SDS011;3784;54.098;9.998;2022-07-23T01:55:58;4.97;;;1.80;;
7485;SDS011;3784;54.098;9.998;2022-07-23T01:58:26;4.37;;;2.10;;
7485;SDS011;3784;54.098;9.998;2022-07-23T02:00:53;4.57;;;1.93;;
7485;SDS011;3784;54.098;9.998;2022-07-23T02:03:20;5.20;;;2.10;;
7485;SDS011;3784;54.098;9.998;2022-07-23T02:05:47;5.60;;;1.97;;
7485;SDS011;3784;54.098;9.998;2022-07-23T02:08:14;6.50;;;2.40;;
7485;SDS011;3784;54.098;9.998;2022-07-23T02:10:41;5.60;;;2.30;;
7485;SDS011;3784;54.098;9.998;2022-07-23T02:13:07;4.50;;;2.20;;
7485;SDS011;3784;54.098;9.998;2022-07-23T02:15:34;3.40;;;1.80;;
7485;SDS011;3784;54.098;9.998;2022-07-23T02:18:01;4.90;;;1.83;;
7485;SDS011;3784;54.098;9.998;2022-07-23T02:20:27;3.33;;;2.13;;
7485;SDS011;3784;54.098;9.998;2022-07-23T02:22:54;3.10;;;1.83;;
7485;SDS011;3784;54.098;9.998;2022-07-23T02:25:20;6.47;;;2.33;;
7485;SDS011;3784;54.098;9.998;2022-07-23T02:27:47;3.77;;;1.90;;
7485;SDS011;3784;54.098;9.998;2022-07-23T02:30:13;5.40;;;1.83;;
7485;SDS011;3784;54.098;9.998;2022-07-23T02:32:40;2.60;;;1.60;;
7485;SDS011;3784;54.098;9.998;2022-07-23T02:35:07;5.43;;;2.20;;
7485;SDS011;3784;54.098;9.998;2022-07-23T02:37:33;2.23;;;1.77;;
7485;SDS011;3784;54.098;9.998;2022-07-23T02:40:00;4.07;;;2.00;;
7485;SDS011;3784;54.098;9.998;2022-07-23T02:42:26;3.03;;;1.80;;
7485;SDS011;3784;54.098;9.998;2022-07-23T02:44:53;3.77;;;1.80;;
7485;SDS011;3784;54.098;9.998;2022-07-23T02:47:19;3.23;;;1.87;;
7485;SDS011;3784;54.098;9.998;2022-07-23T02:49:46;5.43;;;2.30;;
7485;SDS011;3784;54.098;9.998;2022-07-23T02:52:12;4.53;;;2.40;;
7485;SDS011;3784;54.098;9.998;2022-07-23T02:54:39;5.30;;;2.20;;
7485;SDS011;3784;54.098;9.998;2022-07-23T02:57:06;3.47;;;2.40;;
7485;SDS011;3784;54.098;9.998;2022-07-23T02:59:32;4.80;;;2.27;;
7485;SDS011;3784;54.098;9.998;2022-07-23T03:01:59;4.50;;;2.40;;
7485;SDS011;3784;54.098;9.998;2022-07-23T03:04:25;4.83;;;2.43;;
7485;SDS011;3784;54.098;9.998;2022-07-23T03:06:52;3.43;;;2.17;;
7485;SDS011;3784;54.098;9.998;2022-07-23T03:09:18;3.03;;;2.10;;
7485;SDS011;3784;54.098;9.998;2022-07-23T03:11:45;6.40;;;2.43;;
7485;SDS011;3784;54.098;9.998;2022-07-23T03:14:11;6.00;;;2.80;;
7485;SDS011;3784;54.098;9.998;2022-07-23T03:16:39;2.87;;;2.20;;
7485;SDS011;3784;54.098;9.998;2022-07-23T03:19:06;7.93;;;2.67;;
7485;SDS011;3784;54.098;9.998;2022-07-23T03:21:32;4.10;;;2.47;;
7485;SDS011;3784;54.098;9.998;2022-07-23T03:24:00;4.57;;;2.30;;
7485;SDS011;3784;54.098;9.998;2022-07-23T03:26:27;2.90;;;2.47;;
7485;SDS011;3784;54.098;9.998;2022-07-23T03:28:54;5.03;;;2.33;;
7485;SDS011;3784;54.098;9.998;2022-07-23T03:31:20;3.93;;;2.37;;
7485;SDS011;3784;54.098;9.998;2022-07-23T03:33:47;4.27;;;2.20;;
7485;SDS011;3784;54.098;9.998;2022-07-23T03:36:13;2.17;;;1.97;;
7485;SDS011;3784;54.098;9.998;2022-07-23T03:38:40;3.57;;;2.00;;
7485;SDS011;3784;54.098;9.998;2022-07-23T03:41:07;3.40;;;2.07;;
7485;SDS011;3784;54.098;9.998;2022-07-23T03:43:34;3.43;;;2.17;;
7485;SDS011;3784;54.098;9.998;2022-07-23T03:46:00;4.03;;;2.13;;
7485;SDS011;3784;54.098;9.998;2022-07-23T03:48:27;4.87;;;2.23;;
7485;SDS011;3784;54.098;9.998;2022-07-23T03:50:53;3.60;;;2.43;;
7485;SDS011;3784;54.098;9.998;2022-07-23T03:53:20;4.50;;;2.20;;
7485;SDS011;3784;54.098;9.998;2022-07-23T03:55:46;2.80;;;2.00;;
7485;SDS011;3784;54.098;9.998;2022-07-23T03:58:13;4.17;;;2.20;;
7485;SDS011;3784;54.098;9.998;2022-07-23T04:00:40;2.83;;;2.00;;
7485;SDS011;3784;54.098;9.998;2022-07-23T04:03:07;3.03;;;1.90;;
7485;SDS011;3784;54.098;9.998;2022-07-23T04:05:33;4.60;;;1.90;;
7485;SDS011;3784;54.098;9.998;2022-07-23T04:08:00;4.53;;;2.00;;
7485;SDS011;3784;54.098;9.998;2022-07-23T04:10:26;3.63;;;1.90;;
7485;SDS011;3784;54.098;9.998;2022-07-23T04:12:53;2.93;;;2.00;;
7485;SDS011;3784;54.098;9.998;2022-07-23T04:15:20;3.83;;;2.00;;
7485;SDS011;3784;54.098;9.998;2022-07-23T04:17:46;5.33;;;2.57;;
7485;SDS011;3784;54.098;9.998;2022-07-23T04:20:13;2.67;;;2.00;;
7485;SDS011;3784;54.098;9.998;2022-07-23T04:22:39;5.90;;;2.00;;
7485;SDS011;3784;54.098;9.998;2022-07-23T04:25:06;3.17;;;2.20;;
7485;SDS011;3784;54.098;9.998;2022-07-23T04:27:33;3.50;;;1.83;;
7485;SDS011;3784;54.098;9.998;2022-07-23T04:29:59;2.80;;;1.70;;
7485;SDS011;3784;54.098;9.998;2022-07-23T04:32:26;2.43;;;1.50;;
7485;SDS011;3784;54.098;9.998;2022-07-23T04:34:52;3.60;;;1.70;;
7485;SDS011;3784;54.098;9.998;2022-07-23T04:37:19;2.67;;;1.83;;
7485;SDS011;3784;54.098;9.998;2022-07-23T04:39:45;3.07;;;1.43;;
7485;SDS011;3784;54.098;9.998;2022-07-23T04:42:12;2.03;;;1.50;;
7485;SDS011;3784;54.098;9.998;2022-07-23T04:44:39;3.00;;;1.40;;
7485;SDS011;3784;54.098;9.998;2022-07-23T04:47:05;3.60;;;1.40;;
7485;SDS011;3784;54.098;9.998;2022-07-23T04:49:32;2.73;;;1.57;;
7485;SDS011;3784;54.098;9.998;2022-07-23T04:51:58;1.50;;;1.40;;
7485;SDS011;3784;54.098;9.998;2022-07-23T04:54:25;4.90;;;1.40;;
7485;SDS011;3784;54.098;9.998;2022-07-23T04:56:51;4.77;;;1.50;;
7485;SDS011;3784;54.098;9.998;2022-07-23T04:59:18;3.47;;;1.47;;
7485;SDS011;3784;54.098;9.998;2022-07-23T05:01:44;2.33;;;1.30;;
7485;SDS011;3784;54.098;9.998;2022-07-23T05:04:11;4.50;;;1.60;;
7485;SDS011;3784;54.098;9.998;2022-07-23T05:06:37;3.10;;;1.30;;
7485;SDS011;3784;54.098;9.998;2022-07-23T05:09:04;4.63;;;1.53;;
7485;SDS011;3784;54.098;9.998;2022-07-23T05:11:30;2.67;;;1.50;;
7485;SDS011;3784;54.098;9.998;2022-07-23T05:13:57;3.30;;;1.50;;
7485;SDS011;3784;54.098;9.998;2022-07-23T05:16:23;2.03;;;1.00;;
7485;SDS011;3784;54.098;9.998;2022-07-23T05:18:50;1.93;;;1.40;;
7485;SDS011;3784;54.098;9.998;2022-07-23T05:21:16;3.90;;;1.60;;
7485;SDS011;3784;54.098;9.998;2022-07-23T05:23:43;2.60;;;1.40;;
7485;SDS011;3784;54.098;9.998;2022-07-23T05:26:09;2.03;;;1.13;;
7485;SDS011;3784;54.098;9.998;2022-07-23T05:28:36;1.97;;;1.37;;
7485;SDS011;3784;54.098;9.998;2022-07-23T05:31:03;1.70;;;1.30;;
7485;SDS011;3784;54.098;9.998;2022-07-23T05:33:30;3.03;;;1.30;;
7485;SDS011;3784;54.098;9.998;2022-07-23T05:36:03;3.47;;;1.30;;
7485;SDS011;3784;54.098;9.998;2022-07-23T05:38:31;1.70;;;1.20;;
7485;SDS011;3784;54.098;9.998;2022-07-23T05:40:58;2.07;;;1.27;;
7485;SDS011;3784;54.098;9.998;2022-07-23T05:43:24;3.33;;;1.30;;
7485;SDS011;3784;54.098;9.998;2022-07-23T05:45:51;3.07;;;1.10;;
7485;SDS011;3784;54.098;9.998;2022-07-23T05:48:17;1.40;;;1.30;;
7485;SDS011;3784;54.098;9.998;2022-07-23T05:50:44;3.87;;;1.30;;
7485;SDS011;3784;54.098;9.998;2022-07-23T05:53:11;2.27;;;1.40;;
7485;SDS011;3784;54.098;9.998;2022-07-23T05:55:37;4.43;;;1.37;;
7485;SDS011;3784;54.098;9.998;2022-07-23T05:58:04;1.47;;;1.10;;
7485;SDS011;3784;54.098;9.998;2022-07-23T06:00:30;2.93;;;1.30;;
7485;SDS011;3784;54.098;9.998;2022-07-23T06:02:57;3.27;;;1.33;;
7485;SDS011;3784;54.098;9.998;2022-07-23T06:05:24;3.30;;;1.50;;
7485;SDS011;3784;54.098;9.998;2022-07-23T06:07:50;4.23;;;1.70;;
7485;SDS011;3784;54.098;9.998;2022-07-23T06:10:17;3.37;;;1.40;;
7485;SDS011;3784;54.098;9.998;2022-07-23T06:12:43;2.77;;;1.60;;
7485;SDS011;3784;54.098;9.998;2022-07-23T06:15:10;2.27;;;1.30;;
7485;SDS011;3784;54.098;9.998;2022-07-23T06:17:37;2.27;;;1.30;;
7485;SDS011;3784;54.098;9.998;2022-07-23T06:20:07;2.20;;;1.30;;
7485;SDS011;3784;54.098;9.998;2022-07-23T06:22:35;3.53;;;1.60;;
7485;SDS011;3784;54.098;9.998;2022-07-23T06:25:02;3.33;;;1.63;;
7485;SDS011;3784;54.098;9.998;2022-07-23T06:27:28;2.53;;;1.40;;
7485;SDS011;3784;54.098;9.998;2022-07-23T06:29:55;3.10;;;1.37;;
7485;SDS011;3784;54.098;9.998;2022-07-23T06:32:22;2.67;;;1.30;;
7485;SDS011;3784;54.098;9.998;2022-07-23T06:34:48;2.50;;;1.40;;
7485;SDS011;3784;54.098;9.998;2022-07-23T06:37:15;3.83;;;1.33;;
7485;SDS011;3784;54.098;9.998;2022-07-23T06:39:43;2.80;;;1.47;;
7485;SDS011;3784;54.098;9.998;2022-07-23T06:42:10;2.77;;;1.40;;
7485;SDS011;3784;54.098;9.998;2022-07-23T06:44:38;3.07;;;1.43;;
7485;SDS011;3784;54.098;9.998;2022-07-23T06:47:04;2.47;;;1.40;;
7485;SDS011;3784;54.098;9.998;2022-07-23T06:49:31;3.07;;;1.30;;
7485;SDS011;3784;54.098;9.998;2022-07-23T06:51:57;2.07;;;1.37;;
7485;SDS011;3784;54.098;9.998;2022-07-23T06:54:24;1.33;;;1.10;;
7485;SDS011;3784;54.098;9.998;2022-07-23T06:56:50;3.70;;;1.50;;
7485;SDS011;3784;54.098;9.998;2022-07-23T06:59:17;2.57;;;1.43;;
7485;SDS011;3784;54.098;9.998;2022-07-23T07:01:43;1.90;;;1.23;;
7485;SDS011;3784;54.098;9.998;2022-07-23T07:04:10;1.40;;;1.20;;
7485;SDS011;3784;54.098;9.998;2022-07-23T07:06:37;4.13;;;1.37;;
7485;SDS011;3784;54.098;9.998;2022-07-23T07:09:03;3.10;;;1.33;;
7485;SDS011;3784;54.098;9.998;2022-07-23T07:11:30;4.07;;;1.50;;
7485;SDS011;3784;54.098;9.998;2022-07-23T07:13:57;3.33;;;1.30;;
7485;SDS011;3784;54.098;9.998;2022-07-23T07:16:23;2.33;;;1.30;;
7485;SDS011;3784;54.098;9.998;2022-07-23T07:18:57;2.80;;;1.67;;
7485;SDS011;3784;54.098;9.998;2022-07-23T07:21:24;2.57;;;1.30;;
7485;SDS011;3784;54.098;9.998;2022-07-23T07:23:51;2.77;;;1.33;;
7485;SDS011;3784;54.098;9.998;2022-07-23T07:26:17;2.13;;;1.27;;
7485;SDS011;3784;54.098;9.998;2022-07-23T07:28:44;3.77;;;1.50;;
7485;SDS011;3784;54.098;9.998;2022-07-23T07:31:10;3.00;;;1.50;;
7485;SDS011;3784;54.098;9.998;2022-07-23T07:33:37;3.93;;;1.50;;
7485;SDS011;3784;54.098;9.998;2022-07-23T07:36:04;3.43;;;1.40;;
7485;SDS011;3784;54.098;9.998;2022-07-23T07:38:30;3.07;;;1.40;;
7485;SDS011;3784;54.098;9.998;2022-07-23T07:40:57;6.43;;;1.53;;
7485;SDS011;3784;54.098;9.998;2022-07-23T07:43:24;3.67;;;1.60;;
7485;SDS011;3784;54.098;9.998;2022-07-23T07:45:51;3.27;;;1.50;;
7485;SDS011;3784;54.098;9.998;2022-07-23T07:48:18;6.00;;;1.73;;
7485;SDS011;3784;54.098;9.998;2022-07-23T07:50:44;2.37;;;1.20;;
7485;SDS011;3784;54.098;9.998;2022-07-23T07:53:11;4.83;;;1.50;;
7485;SDS011;3784;54.098;9.998;2022-07-23T07:55:38;3.63;;;1.60;;
7485;SDS011;3784;54.098;9.998;2022-07-23T07:58:05;2.20;;;1.23;;
7485;SDS011;3784;54.098;9.998;2022-07-23T08:00:31;6.33;;;1.90;;
7485;SDS011;3784;54.098;9.998;2022-07-23T08:02:59;9.73;;;2.20;;
7485;SDS011;3784;54.098;9.998;2022-07-23T08:05:26;2.60;;;1.57;;
7485;SDS011;3784;54.098;9.998;2022-07-23T08:07:54;5.67;;;1.53;;
7485;SDS011;3784;54.098;9.998;2022-07-23T08:10:22;5.27;;;1.50;;
7485;SDS011;3784;54.098;9.998;2022-07-23T08:12:51;4.40;;;1.63;;
7485;SDS011;3784;54.098;9.998;2022-07-23T08:15:20;3.30;;;1.40;;
7485;SDS011;3784;54.098;9.998;2022-07-23T08:17:48;3.53;;;1.67;;
7485;SDS011;3784;54.098;9.998;2022-07-23T08:20:16;4.13;;;2.10;;
7485;SDS011;3784;54.098;9.998;2022-07-23T08:22:45;1.90;;;1.60;;
7485;SDS011;3784;54.098;9.998;2022-07-23T08:25:14;4.37;;;1.80;;
7485;SDS011;3784;54.098;9.998;2022-07-23T08:27:41;3.07;;;1.90;;
7485;SDS011;3784;54.098;9.998;2022-07-23T08:30:08;3.53;;;1.73;;
7485;SDS011;3784;54.098;9.998;2022-07-23T08:32:55;3.60;;;1.97;;
7485;SDS011;3784;54.098;9.998;2022-07-23T08:35:29;4.00;;;1.90;;
7485;SDS011;3784;54.098;9.998;2022-07-23T08:37:56;4.37;;;1.80;;
7485;SDS011;3784;54.098;9.998;2022-07-23T08:40:25;4.73;;;1.80;;
7485;SDS011;3784;54.098;9.998;2022-07-23T08:42:53;2.27;;;1.40;;
7485;SDS011;3784;54.098;9.998;2022-07-23T08:45:20;4.10;;;2.00;;
7485;SDS011;3784;54.098;9.998;2022-07-23T08:47:51;3.97;;;1.57;;
7485;SDS011;3784;54.098;9.998;2022-07-23T08:50:22;5.00;;;1.77;;
7485;SDS011;3784;54.098;9.998;2022-07-23T08:52:50;2.67;;;1.63;;
7485;SDS011;3784;54.098;9.998;2022-07-23T08:55:17;4.10;;;1.70;;
7485;SDS011;3784;54.098;9.998;2022-07-23T08:57:46;3.20;;;1.60;;
7485;SDS011;3784;54.098;9.998;2022-07-23T09:00:14;2.30;;;1.30;;
7485;SDS011;3784;54.098;9.998;2022-07-23T09:02:42;4.03;;;1.43;;
7485;SDS011;3784;54.098;9.998;2022-07-23T09:05:10;4.33;;;1.53;;
7485;SDS011;3784;54.098;9.998;2022-07-23T09:08:02;4.10;;;1.70;;
7485;SDS011;3784;54.098;9.998;2022-07-23T09:10:51;2.83;;;1.50;;
7485;SDS011;3784;54.098;9.998;2022-07-23T09:16:05;3.00;;;1.30;;
7485;SDS011;3784;54.098;9.998;2022-07-23T09:18:39;4.13;;;1.43;;
7485;SDS011;3784;54.098;9.998;2022-07-23T09:21:37;2.63;;;1.40;;
7485;SDS011;3784;54.098;9.998;2022-07-23T09:26:34;5.03;;;1.63;;
7485;SDS011;3784;54.098;9.998;2022-07-23T09:32:00;4.47;;;1.37;;
7485;SDS011;3784;54.098;9.998;2022-07-23T09:34:32;3.53;;;1.70;;
7485;SDS011;3784;54.098;9.998;2022-07-23T09:37:14;3.43;;;1.70;;
7485;SDS011;3784;54.098;9.998;2022-07-23T09:39:43;4.87;;;1.40;;
7485;SDS011;3784;54.098;9.998;2022-07-23T09:42:15;3.97;;;1.37;;
7485;SDS011;3784;54.098;9.998;2022-07-23T09:44:46;1.83;;;1.43;;
7485;SDS011;3784;54.098;9.998;2022-07-23T09:47:13;3.50;;;1.30;;
7485;SDS011;3784;54.098;9.998;2022-07-23T09:49:41;2.77;;;1.60;;
7485;SDS011;3784;54.098;9.998;2022-07-23T09:52:30;4.83;;;1.80;;
7485;SDS011;3784;54.098;9.998;2022-07-23T09:55:02;5.37;;;1.90;;
7485;SDS011;3784;54.098;9.998;2022-07-23T09:57:32;4.73;;;1.57;;
7485;SDS011;3784;54.098;9.998;2022-07-23T10:00:06;5.27;;;1.73;;
7485;SDS011;3784;54.098;9.998;2022-07-23T10:02:35;2.60;;;1.30;;
7485;SDS011;3784;54.098;9.998;2022-07-23T10:05:02;3.33;;;1.30;;
7485;SDS011;3784;54.098;9.998;2022-07-23T10:07:34;2.97;;;1.20;;
7485;SDS011;3784;54.098;9.998;2022-07-23T10:10:02;2.33;;;1.40;;
7485;SDS011;3784;54.098;9.998;2022-07-23T10:12:30;2.07;;;1.30;;
7485;SDS011;3784;54.098;9.998;2022-07-23T10:15:00;1.87;;;1.13;;
7485;SDS011;3784;54.098;9.998;2022-07-23T10:17:27;2.87;;;1.30;;
7485;SDS011;3784;54.098;9.998;2022-07-23T10:19:54;2.63;;;1.20;;
7485;SDS011;3784;54.098;9.998;2022-07-23T10:22:22;2.03;;;1.37;;
7485;SDS011;3784;54.098;9.998;2022-07-23T10:31:14;3.07;;;1.20;;
7485;SDS011;3784;54.098;9.998;2022-07-23T10:34:14;2.80;;;1.43;;
7485;SDS011;3784;54.098;9.998;2022-07-23T10:39:28;2.30;;;1.17;;
7485;SDS011;3784;54.098;9.998;2022-07-23T10:42:09;2.20;;;1.10;;
7485;SDS011;3784;54.098;9.998;2022-07-23T10:44:44;2.40;;;1.20;;
7485;SDS011;3784;54.098;9.998;2022-07-23T10:47:12;1.40;;;1.00;;
7485;SDS011;3784;54.098;9.998;2022-07-23T10:50:26;4.53;;;1.40;;
7485;SDS011;3784;54.098;9.998;2022-07-23T10:57:58;2.80;;;1.20;;
7485;SDS011;3784;54.098;9.998;2022-07-23T11:00:26;1.73;;;1.00;;
7485;SDS011;3784;54.098;9.998;2022-07-23T11:02:56;3.40;;;1.33;;
7485;SDS011;3784;54.098;9.998;2022-07-23T11:05:27;4.37;;;1.40;;
7485;SDS011;3784;54.098;9.998;2022-07-23T11:34:35;5.10;;;1.53;;
7485;SDS011;3784;54.098;9.998;2022-07-23T11:37:07;2.93;;;1.50;;
7485;SDS011;3784;54.098;9.998;2022-07-23T11:39:36;2.40;;;1.20;;
7485;SDS011;3784;54.098;9.998;2022-07-23T11:42:03;2.07;;;1.50;;
7485;SDS011;3784;54.098;9.998;2022-07-23T11:44:36;5.33;;;1.60;;
7485;SDS011;3784;54.098;9.998;2022-07-23T11:47:05;2.20;;;1.20;;
7485;SDS011;3784;54.098;9.998;2022-07-23T11:49:33;4.37;;;1.67;;
7485;SDS011;3784;54.098;9.998;2022-07-23T11:54:34;2.73;;;1.30;;
7485;SDS011;3784;54.098;9.998;2022-07-23T11:57:05;3.83;;;1.50;;
7485;SDS011;3784;54.098;9.998;2022-07-23T11:59:32;2.77;;;1.40;;
7485;SDS011;3784;54.098;9.998;2022-07-23T12:02:00;4.60;;;1.67;;
7485;SDS011;3784;54.098;9.998;2022-07-23T12:04:42;1.97;;;1.30;;
7485;SDS011;3784;54.098;9.998;2022-07-23T12:07:30;3.57;;;1.50;;
7485;SDS011;3784;54.098;9.998;2022-07-23T12:09:57;3.03;;;1.20;;
7485;SDS011;3784;54.098;9.998;2022-07-23T12:12:25;2.77;;;1.33;;
7485;SDS011;3784;54.098;9.998;2022-07-23T12:14:54;3.97;;;1.60;;
7485;SDS011;3784;54.098;9.998;2022-07-23T12:17:29;3.27;;;1.57;;
7485;SDS011;3784;54.098;9.998;2022-07-23T12:20:00;4.87;;;1.83;;
7485;SDS011;3784;54.098;9.998;2022-07-23T12:22:32;2.23;;;1.10;;
7485;SDS011;3784;54.098;9.998;2022-07-23T12:25:07;3.63;;;1.47;;
7485;SDS011;3784;54.098;9.998;2022-07-23T12:27:36;2.30;;;1.30;;
7485;SDS011;3784;54.098;9.998;2022-07-23T12:30:19;2.87;;;1.50;;
7485;SDS011;3784;54.098;9.998;2022-07-23T12:32:48;5.93;;;1.30;;
7485;SDS011;3784;54.098;9.998;2022-07-23T12:35:16;3.33;;;1.40;;
7485;SDS011;3784;54.098;9.998;2022-07-23T12:37:43;2.17;;;1.27;;
7485;SDS011;3784;54.098;9.998;2022-07-23T12:40:22;2.10;;;1.10;;
7485;SDS011;3784;54.098;9.998;2022-07-23T12:42:54;1.30;;;1.17;;
7485;SDS011;3784;54.098;9.998;2022-07-23T12:45:22;2.73;;;1.30;;
7485;SDS011;3784;54.098;9.998;2022-07-23T12:50:31;1.20;;;1.07;;
7485;SDS011;3784;54.098;9.998;2022-07-23T12:53:03;1.60;;;0.87;;
7485;SDS011;3784;54.098;9.998;2022-07-23T12:55:50;0.80;;;0.80;;
7485;SDS011;3784;54.098;9.998;2022-07-23T12:58:51;1.07;;;0.97;;
7485;SDS011;3784;54.098;9.998;2022-07-23T13:06:23;1.63;;;1.00;;
7485;SDS011;3784;54.098;9.998;2022-07-23T13:08:50;1.80;;;1.00;;
7485;SDS011;3784;54.098;9.998;2022-07-23T13:11:16;1.77;;;1.03;;
7485;SDS011;3784;54.098;9.998;2022-07-23T13:13:45;1.47;;;1.10;;
7485;SDS011;3784;54.098;9.998;2022-07-23T13:16:11;2.10;;;1.00;;
7485;SDS011;3784;54.098;9.998;2022-07-23T13:18:38;4.00;;;1.23;;
7485;SDS011;3784;54.098;9.998;2022-07-23T13:21:05;2.93;;;1.30;;
7485;SDS011;3784;54.098;9.998;2022-07-23T13:23:31;1.10;;;1.00;;
7485;SDS011;3784;54.098;9.998;2022-07-23T13:25:58;2.70;;;1.20;;
7485;SDS011;3784;54.098;9.998;2022-07-23T13:28:25;2.33;;;1.03;;
7485;SDS011;3784;54.098;9.998;2022-07-23T13:30:52;3.73;;;1.30;;
7485;SDS011;3784;54.098;9.998;2022-07-23T13:33:20;3.20;;;1.37;;
7485;SDS011;3784;54.098;9.998;2022-07-23T13:35:48;2.90;;;1.30;;
7485;SDS011;3784;54.098;9.998;2022-07-23T13:38:14;1.80;;;1.20;;
7485;SDS011;3784;54.098;9.998;2022-07-23T13:40:43;2.43;;;1.40;;
7485;SDS011;3784;54.098;9.998;2022-07-23T13:43:12;2.73;;;1.20;;
7485;SDS011;3784;54.098;9.998;2022-07-23T13:45:41;2.77;;;1.50;;
7485;SDS011;3784;54.098;9.998;2022-07-23T13:48:13;1.50;;;1.13;;
7485;SDS011;3784;54.098;9.998;2022-07-23T13:50:40;2.27;;;1.00;;
7485;SDS011;3784;54.098;9.998;2022-07-23T13:53:09;2.27;;;1.20;;
7485;SDS011;3784;54.098;9.998;2022-07-23T13:55:38;2.87;;;1.20;;
7485;SDS011;3784;54.098;9.998;2022-07-23T13:58:05;2.33;;;1.37;;
7485;SDS011;3784;54.098;9.998;2022-07-23T14:00:32;4.57;;;1.60;;
7485;SDS011;3784;54.098;9.998;2022-07-23T14:03:20;3.77;;;1.60;;
7485;SDS011;3784;54.098;9.998;2022-07-23T14:05:53;3.43;;;1.50;;
7485;SDS011;3784;54.098;9.998;2022-07-23T14:08:22;4.03;;;1.60;;
7485;SDS011;3784;54.098;9.998;2022-07-23T14:10:49;4.73;;;1.87;;
7485;SDS011;3784;54.098;9.998;2022-07-23T14:13:16;3.83;;;1.93;;
7485;SDS011;3784;54.098;9.998;2022-07-23T14:15:46;2.10;;;1.40;;
7485;SDS011;3784;54.098;9.998;2022-07-23T14:18:13;3.10;;;1.70;;
7485;SDS011;3784;54.098;9.998;2022-07-23T14:20:40;4.50;;;1.50;;
7485;SDS011;3784;54.098;9.998;2022-07-23T14:23:06;4.03;;;1.90;;
7485;SDS011;3784;54.098;9.998;2022-07-23T14:25:33;5.93;;;2.70;;
7485;SDS011;3784;54.098;9.998;2022-07-23T14:27:59;3.80;;;1.83;;
7485;SDS011;3784;54.098;9.998;2022-07-23T14:30:26;3.53;;;1.20;;
7485;SDS011;3784;54.098;9.998;2022-07-23T14:32:59;4.00;;;1.57;;
7485;SDS011;3784;54.098;9.998;2022-07-23T14:35:26;5.10;;;1.57;;
7485;SDS011;3784;54.098;9.998;2022-07-23T14:37:53;4.07;;;1.37;;
7485;SDS011;3784;54.098;9.998;2022-07-23T14:40:20;2.40;;;1.10;;
7485;SDS011;3784;54.098;9.998;2022-07-23T14:42:48;1.40;;;0.93;;
7485;SDS011;3784;54.098;9.998;2022-07-23T14:45:15;2.10;;;1.30;;
7485;SDS011;3784;54.098;9.998;2022-07-23T14:47:44;2.00;;;1.17;;
7485;SDS011;3784;54.098;9.998;2022-07-23T14:50:12;3.00;;;1.20;;
7485;SDS011;3784;54.098;9.998;2022-07-23T14:52:39;1.97;;;1.07;;
7485;SDS011;3784;54.098;9.998;2022-07-23T14:55:06;2.70;;;1.20;;
7485;SDS011;3784;54.098;9.998;2022-07-23T14:57:33;3.50;;;1.20;;
7485;SDS011;3784;54.098;9.998;2022-07-23T15:00:00;6.03;;;2.00;;
7485;SDS011;3784;54.098;9.998;2022-07-23T15:02:26;3.27;;;1.40;;
7485;SDS011;3784;54.098;9.998;2022-07-23T15:04:53;1.77;;;1.20;;
7485;SDS011;3784;54.098;9.998;2022-07-23T15:07:21;2.20;;;1.40;;
7485;SDS011;3784;54.098;9.998;2022-07-23T15:09:52;6.37;;;1.60;;
7485;SDS011;3784;54.098;9.998;2022-07-23T15:12:18;2.03;;;1.20;;
7485;SDS011;3784;54.098;9.998;2022-07-23T15:14:47;4.13;;;1.20;;
7485;SDS011;3784;54.098;9.998;2022-07-23T15:17:13;4.10;;;1.20;;
7485;SDS011;3784;54.098;9.998;2022-07-23T15:19:40;2.43;;;1.40;;
7485;SDS011;3784;54.098;9.998;2022-07-23T15:22:07;2.43;;;1.30;;
7485;SDS011;3784;54.098;9.998;2022-07-23T15:24:34;3.10;;;1.77;;
7485;SDS011;3784;54.098;9.998;2022-07-23T15:27:00;10.93;;;2.20;;
7485;SDS011;3784;54.098;9.998;2022-07-23T15:29:27;10.67;;;2.40;;
7485;SDS011;3784;54.098;9.998;2022-07-23T15:31:54;2.23;;;1.60;;
7485;SDS011;3784;54.098;9.998;2022-07-23T15:34:24;3.40;;;1.53;;
7485;SDS011;3784;54.098;9.998;2022-07-23T15:36:51;7.20;;;2.47;;
7485;SDS011;3784;54.098;9.998;2022-07-23T15:39:18;3.33;;;1.67;;
7485;SDS011;3784;54.098;9.998;2022-07-23T15:41:44;2.73;;;1.30;;
7485;SDS011;3784;54.098;9.998;2022-07-23T15:44:13;2.63;;;1.20;;
7485;SDS011;3784;54.098;9.998;2022-07-23T15:46:55;2.43;;;1.20;;
7485;SDS011;3784;54.098;9.998;2022-07-23T15:49:25;2.70;;;1.50;;
7485;SDS011;3784;54.098;9.998;2022-07-23T15:51:52;3.80;;;1.60;;
7485;SDS011;3784;54.098;9.998;2022-07-23T15:54:21;3.07;;;1.40;;
7485;SDS011;3784;54.098;9.998;2022-07-23T15:56:47;3.80;;;1.50;;
7485;SDS011;3784;54.098;9.998;2022-07-23T15:59:15;3.97;;;1.90;;
7485;SDS011;3784;54.098;9.998;2022-07-23T16:01:42;2.70;;;1.77;;
7485;SDS011;3784;54.098;9.998;2022-07-23T16:04:09;2.80;;;1.40;;
7485;SDS011;3784;54.098;9.998;2022-07-23T16:06:36;3.03;;;1.37;;
7485;SDS011;3784;54.098;9.998;2022-07-23T16:09:03;3.27;;;1.60;;
7485;SDS011;3784;54.098;9.998;2022-07-23T16:11:32;2.40;;;1.27;;
7485;SDS011;3784;54.098;9.998;2022-07-23T16:13:59;3.90;;;1.60;;
7485;SDS011;3784;54.098;9.998;2022-07-23T16:16:26;3.53;;;1.77;;
7485;SDS011;3784;54.098;9.998;2022-07-23T16:18:53;3.70;;;1.77;;
7485;SDS011;3784;54.098;9.998;2022-07-23T16:21:20;3.50;;;1.40;;